Time;durP1;ratioP1;P1;durP2;ratioP2;P2;SDS_P1;SDS_P2;PMS_P1;PMS_P2;Temp;Humidity;BMP_temperature;BMP_pressure;BME280_temperature;BME280_humidity;BME280_pressure;Samples;Min_cycle;Max_cycle;Signal;HPM_P1;HPM_P2
2022/01/04 00:01:19;;;;;;;0.97;0.87;;;10.20;99.90;;;;;;5051655;28;20462;-52
2022/01/04 00:03:48;;;;;;;1.30;0.90;;;10.20;99.90;;;;;;5049714;28;20447;-51
2022/01/04 00:06:17;;;;;;;1.50;0.80;;;10.20;99.90;;;;;;5033280;28;20471;-51
2022/01/04 00:08:46;;;;;;;1.13;0.90;;;10.20;99.90;;;;;;5044178;28;20458;-52
2022/01/04 00:11:18;;;;;;;0.73;0.73;;;10.20;99.90;;;;;;5037825;28;20468;-51
2022/01/04 00:13:48;;;;;;;1.03;0.90;;;10.20;99.90;;;;;;5023952;28;20456;-53
2022/01/04 00:16:19;;;;;;;1.10;0.83;;;10.20;99.90;;;;;;5045908;28;20993;-51
2022/01/04 00:18:48;;;;;;;0.80;0.70;;;10.20;99.90;;;;;;5037994;28;20754;-52
2022/01/04 00:21:17;;;;;;;0.87;0.70;;;10.20;99.90;;;;;;5045326;28;20472;-51
2022/01/04 00:23:45;;;;;;;0.90;0.73;;;10.20;99.90;;;;;;5044920;28;20438;-52
2022/01/04 00:26:15;;;;;;;1.43;0.80;;;10.20;99.90;;;;;;5036247;28;20471;-51
2022/01/04 00:28:44;;;;;;;1.83;0.77;;;10.20;99.90;;;;;;5036620;28;20479;-52
2022/01/04 00:31:13;;;;;;;0.70;0.70;;;10.20;99.90;;;;;;5028884;28;20470;-53
2022/01/04 00:33:43;;;;;;;0.60;0.60;;;10.20;99.90;;;;;;5044541;28;20459;-53
2022/01/04 00:36:12;;;;;;;0.97;0.83;;;10.20;99.90;;;;;;5033552;28;20463;-57
2022/01/04 00:38:42;;;;;;;0.90;0.70;;;10.20;99.90;;;;;;5036824;28;20463;-58
2022/01/04 00:41:11;;;;;;;1.03;0.93;;;10.20;99.90;;;;;;5051545;28;21032;-53
2022/01/04 00:43:40;;;;;;;1.13;1.00;;;10.20;99.90;;;;;;5056856;28;20447;-52
2022/01/04 00:46:15;;;;;;;1.00;0.80;;;10.20;99.90;;;;;;5040341;28;20487;-53
2022/01/04 00:51:34;;;;;;;0.97;0.80;;;10.20;99.90;;;;;;5033468;28;20507;-51
2022/01/04 00:54:03;;;;;;;1.37;1.10;;;10.10;99.90;;;;;;5021099;28;20489;-51
2022/01/04 00:56:32;;;;;;;3.73;0.90;;;10.10;99.90;;;;;;5033203;28;20468;-50
2022/01/04 00:59:01;;;;;;;0.63;0.63;;;10.20;99.90;;;;;;5047144;28;20977;-50
2022/01/04 01:01:30;;;;;;;1.10;0.80;;;10.20;99.90;;;;;;5033124;28;20463;-50
2022/01/04 01:04:01;;;;;;;0.70;0.60;;;10.10;99.90;;;;;;5034266;28;20470;-54
2022/01/04 01:06:30;;;;;;;0.57;0.57;;;10.10;99.90;;;;;;5040887;28;21062;-53
2022/01/04 01:09:00;;;;;;;0.83;0.57;;;10.10;99.90;;;;;;5052633;28;20463;-53
2022/01/04 01:11:29;;;;;;;1.57;0.87;;;10.10;99.90;;;;;;5023556;28;20862;-52
2022/01/04 01:13:58;;;;;;;1.23;0.93;;;10.10;99.90;;;;;;5045860;28;20601;-51
2022/01/04 01:16:27;;;;;;;1.20;0.80;;;10.10;99.90;;;;;;5036284;28;20460;-52
2022/01/04 01:18:56;;;;;;;0.87;0.60;;;10.10;99.90;;;;;;5048865;28;20518;-51
2022/01/04 01:21:27;;;;;;;0.90;0.70;;;10.10;99.90;;;;;;5033690;28;20563;-51
2022/01/04 01:23:56;;;;;;;1.57;1.20;;;10.10;99.90;;;;;;5035483;28;20435;-52
2022/01/04 01:26:25;;;;;;;1.57;0.80;;;10.10;99.90;;;;;;5048817;28;20493;-52
2022/01/04 01:28:54;;;;;;;0.77;0.67;;;10.20;99.90;;;;;;5047620;28;20452;-52
2022/01/04 01:31:23;;;;;;;0.70;0.60;;;10.10;99.90;;;;;;5037336;28;20493;-52
2022/01/04 01:33:52;;;;;;;0.90;0.60;;;10.10;99.90;;;;;;5051547;28;20526;-52
2022/01/04 01:36:21;;;;;;;0.90;0.80;;;10.10;99.90;;;;;;5039539;28;20930;-54
2022/01/04 01:38:52;;;;;;;1.17;0.90;;;10.10;99.90;;;;;;5053022;28;20555;-51
2022/01/04 01:41:21;;;;;;;0.60;0.60;;;10.10;99.90;;;;;;5037535;28;20550;-52
2022/01/04 01:43:50;;;;;;;2.10;0.83;;;10.10;99.90;;;;;;5056208;28;20429;-52
2022/01/04 01:46:19;;;;;;;0.67;0.67;;;10.10;99.90;;;;;;5041804;28;20479;-53
2022/01/04 01:48:48;;;;;;;0.60;0.50;;;10.10;99.90;;;;;;5027430;28;21039;-52
2022/01/04 01:51:17;;;;;;;0.80;0.63;;;10.10;99.90;;;;;;5044812;28;20481;-52
2022/01/04 01:53:46;;;;;;;0.97;0.70;;;10.10;99.90;;;;;;5037128;28;20618;-51
2022/01/04 01:56:16;;;;;;;0.67;0.60;;;10.10;99.90;;;;;;5048337;28;20502;-52
2022/01/04 01:58:45;;;;;;;0.93;0.87;;;10.10;99.90;;;;;;5048104;28;20473;-56
2022/01/04 02:01:15;;;;;;;0.63;0.60;;;10.10;99.90;;;;;;5041311;28;20468;-54
2022/01/04 02:03:45;;;;;;;1.83;0.90;;;10.10;99.90;;;;;;5040258;28;20444;-58
2022/01/04 02:06:14;;;;;;;1.10;0.70;;;10.10;99.90;;;;;;5025569;28;20473;-51
2022/01/04 02:08:42;;;;;;;0.60;0.60;;;10.10;99.90;;;;;;5045336;28;20506;-54
2022/01/04 02:11:13;;;;;;;0.90;0.70;;;10.10;99.90;;;;;;5046968;28;20493;-52
2022/01/04 02:13:43;;;;;;;1.03;0.70;;;10.10;99.90;;;;;;5038892;28;20463;-51
2022/01/04 02:16:13;;;;;;;0.80;0.67;;;10.10;99.90;;;;;;5046751;28;21048;-52
2022/01/04 02:18:42;;;;;;;0.93;0.63;;;10.10;99.90;;;;;;5042785;28;20460;-51
2022/01/04 02:21:12;;;;;;;0.70;0.70;;;10.10;99.90;;;;;;5040248;28;20475;-53
2022/01/04 02:23:41;;;;;;;1.80;0.80;;;10.10;99.90;;;;;;5044414;28;20454;-52
2022/01/04 02:26:10;;;;;;;0.57;0.50;;;10.10;99.90;;;;;;5044522;28;20563;-51
2022/01/04 02:28:40;;;;;;;0.90;0.70;;;10.10;99.90;;;;;;5041018;28;20467;-53
2022/01/04 02:31:08;;;;;;;1.00;0.97;;;10.10;99.90;;;;;;5052007;28;20841;-53
2022/01/04 02:33:37;;;;;;;0.90;0.80;;;10.10;99.90;;;;;;5033359;28;20455;-52
2022/01/04 02:36:06;;;;;;;0.60;0.60;;;10.10;99.90;;;;;;5037941;28;20534;-53
2022/01/04 02:38:37;;;;;;;1.57;0.63;;;10.10;99.90;;;;;;5039100;28;20494;-52
2022/01/04 02:41:06;;;;;;;0.70;0.70;;;10.10;99.90;;;;;;5042802;28;20464;-52
2022/01/04 02:43:34;;;;;;;0.60;0.60;;;10.10;99.90;;;;;;5044492;28;20443;-52
2022/01/04 02:46:03;;;;;;;0.77;0.67;;;10.10;99.90;;;;;;5047505;28;20537;-53
2022/01/04 02:48:32;;;;;;;0.80;0.80;;;10.10;99.90;;;;;;5038207;28;20470;-53
2022/01/04 02:51:01;;;;;;;0.90;0.60;;;10.10;99.90;;;;;;5038608;28;20467;-52
2022/01/04 02:53:30;;;;;;;0.80;0.70;;;10.10;99.90;;;;;;5037498;28;20820;-53
2022/01/04 02:56:00;;;;;;;0.80;0.70;;;10.10;99.90;;;;;;5044324;28;20471;-52
2022/01/04 02:58:29;;;;;;;0.80;0.60;;;10.10;99.90;;;;;;5044021;28;20463;-53
2022/01/04 03:00:58;;;;;;;0.93;0.87;;;10.10;99.90;;;;;;5021203;28;20472;-52
2022/01/04 03:03:28;;;;;;;1.03;0.73;;;10.10;99.90;;;;;;5017706;28;20444;-52
2022/01/04 03:05:56;;;;;;;0.90;0.70;;;10.10;99.90;;;;;;5037090;28;20479;-52
2022/01/04 03:08:25;;;;;;;1.47;1.00;;;10.10;99.90;;;;;;5040570;28;20463;-51
2022/01/04 03:10:54;;;;;;;1.10;0.80;;;10.10;99.90;;;;;;5039066;28;20468;-52
2022/01/04 03:13:24;;;;;;;0.70;0.60;;;10.00;99.90;;;;;;5047234;28;20440;-51
2022/01/04 03:15:53;;;;;;;0.67;0.53;;;10.10;99.90;;;;;;5036504;28;20503;-52
2022/01/04 03:18:22;;;;;;;1.97;0.80;;;10.00;99.90;;;;;;5015404;28;20467;-56
2022/01/04 03:20:51;;;;;;;0.43;0.40;;;10.00;99.90;;;;;;5026908;28;20471;-52
2022/01/04 03:23:19;;;;;;;0.70;0.70;;;10.10;99.90;;;;;;5041381;28;20486;-55
2022/01/04 03:25:48;;;;;;;0.77;0.70;;;10.00;99.90;;;;;;5037226;28;20485;-55
2022/01/04 03:28:19;;;;;;;1.03;0.80;;;10.00;99.90;;;;;;5009764;28;20451;-57
2022/01/04 03:30:50;;;;;;;0.70;0.70;;;10.00;99.90;;;;;;5044290;28;20478;-52
2022/01/04 03:33:19;;;;;;;0.60;0.60;;;10.00;99.90;;;;;;5052652;28;20534;-55
2022/01/04 03:35:48;;;;;;;0.70;0.70;;;10.00;99.90;;;;;;5032973;28;20476;-53
2022/01/04 03:38:17;;;;;;;0.63;0.63;;;10.00;99.90;;;;;;5041372;28;20454;-52
2022/01/04 03:40:47;;;;;;;0.70;0.57;;;10.00;99.90;;;;;;5040086;28;20571;-53
2022/01/04 03:43:16;;;;;;;0.67;0.50;;;10.00;99.90;;;;;;5046528;28;20454;-52
2022/01/04 03:45:45;;;;;;;0.60;0.60;;;10.00;99.90;;;;;;5034914;28;20476;-52
2022/01/04 03:48:15;;;;;;;0.60;0.50;;;10.00;99.90;;;;;;5049578;28;20866;-52
2022/01/04 03:50:45;;;;;;;1.07;0.80;;;10.00;99.90;;;;;;5034824;28;20479;-53
2022/01/04 03:53:14;;;;;;;1.03;0.70;;;10.00;99.90;;;;;;5045815;28;20526;-52
2022/01/04 03:55:42;;;;;;;0.63;0.60;;;10.00;99.90;;;;;;5044889;28;20474;-53
2022/01/04 03:58:11;;;;;;;0.90;0.73;;;10.00;99.90;;;;;;5035417;28;20868;-52
2022/01/04 04:00:40;;;;;;;0.50;0.50;;;10.00;99.90;;;;;;5049052;28;20474;-52
2022/01/04 04:03:09;;;;;;;0.80;0.80;;;10.00;99.90;;;;;;5017937;28;20792;-51
2022/01/04 04:05:39;;;;;;;0.80;0.70;;;10.00;99.90;;;;;;5038807;28;20467;-53
2022/01/04 04:08:08;;;;;;;0.70;0.50;;;10.00;99.90;;;;;;5036763;28;20459;-52
2022/01/04 04:10:37;;;;;;;1.30;0.80;;;10.00;99.90;;;;;;5015368;28;20471;-52
2022/01/04 04:13:06;;;;;;;0.60;0.50;;;10.00;99.90;;;;;;5045515;28;20800;-52
2022/01/04 04:15:35;;;;;;;0.63;0.60;;;10.00;99.90;;;;;;5046112;28;20475;-52
2022/01/04 04:18:03;;;;;;;0.97;0.57;;;10.00;99.90;;;;;;5030582;28;21052;-51
2022/01/04 04:20:32;;;;;;;0.93;0.80;;;10.00;99.90;;;;;;5047540;28;20478;-52
2022/01/04 04:23:02;;;;;;;0.60;0.60;;;10.00;99.90;;;;;;5048858;28;20534;-52
2022/01/04 04:25:31;;;;;;;1.30;0.90;;;10.00;99.90;;;;;;5038468;28;20495;-52
2022/01/04 04:28:00;;;;;;;1.37;0.93;;;10.00;99.90;;;;;;5043668;28;20455;-52
2022/01/04 04:30:29;;;;;;;1.03;0.90;;;10.00;99.90;;;;;;5037943;28;20475;-51
2022/01/04 04:32:58;;;;;;;0.97;0.77;;;10.00;99.90;;;;;;5019371;28;20466;-52
2022/01/04 04:35:28;;;;;;;0.80;0.80;;;10.00;99.90;;;;;;5045227;28;20480;-55
2022/01/04 04:37:59;;;;;;;0.83;0.60;;;9.90;99.90;;;;;;5043663;28;20978;-56
2022/01/04 04:40:29;;;;;;;1.33;1.23;;;10.00;99.90;;;;;;5039060;28;20478;-52
2022/01/04 04:42:58;;;;;;;0.77;0.70;;;10.00;99.90;;;;;;5053226;28;20946;-56
2022/01/04 04:45:28;;;;;;;0.87;0.67;;;10.00;99.90;;;;;;5035090;28;20520;-56
2022/01/04 04:47:57;;;;;;;1.20;0.97;;;9.90;99.90;;;;;;5040243;28;20534;-55
2022/01/04 04:50:26;;;;;;;1.60;0.80;;;9.90;99.90;;;;;;5042151;28;20991;-58
2022/01/04 04:52:57;;;;;;;1.07;0.87;;;9.90;99.90;;;;;;5045313;28;20539;-51
2022/01/04 04:55:26;;;;;;;0.70;0.70;;;9.90;99.90;;;;;;5038148;28;21335;-52
2022/01/04 04:57:56;;;;;;;1.20;0.80;;;9.90;99.90;;;;;;5016517;28;20968;-52
2022/01/04 05:00:25;;;;;;;0.90;0.70;;;9.90;99.90;;;;;;5018990;28;20493;-53
2022/01/04 05:02:54;;;;;;;1.10;1.00;;;9.90;99.90;;;;;;5049804;28;20515;-54
2022/01/04 05:05:23;;;;;;;0.90;0.60;;;9.90;99.90;;;;;;5032183;28;20510;-53
2022/01/04 05:07:52;;;;;;;1.93;0.90;;;9.90;99.90;;;;;;5014506;28;20459;-51
2022/01/04 05:10:21;;;;;;;1.57;0.60;;;9.90;99.90;;;;;;5038334;28;20475;-52
2022/01/04 05:12:49;;;;;;;1.20;0.77;;;9.90;99.90;;;;;;5052019;28;20477;-52
2022/01/04 05:15:19;;;;;;;0.60;0.50;;;9.90;99.90;;;;;;5050276;28;20999;-53
2022/01/04 05:17:48;;;;;;;0.70;0.60;;;9.90;99.90;;;;;;5050955;28;20961;-52
2022/01/04 05:20:18;;;;;;;1.00;0.90;;;9.90;99.90;;;;;;5052129;28;20473;-53
2022/01/04 05:22:47;;;;;;;0.90;0.67;;;9.90;99.90;;;;;;5056372;28;20445;-51
2022/01/04 05:25:16;;;;;;;0.80;0.73;;;9.90;99.90;;;;;;5054861;28;20477;-52
2022/01/04 05:27:45;;;;;;;0.70;0.63;;;9.90;99.90;;;;;;5038562;28;21147;-52
2022/01/04 05:30:14;;;;;;;0.70;0.50;;;9.90;99.90;;;;;;5050556;28;20506;-53
2022/01/04 05:32:44;;;;;;;1.00;0.70;;;9.90;99.90;;;;;;5053020;28;20933;-53
2022/01/04 05:35:13;;;;;;;1.10;0.70;;;9.90;99.90;;;;;;5037765;28;20480;-53
2022/01/04 05:37:42;;;;;;;0.87;0.70;;;9.90;99.90;;;;;;5050372;28;20476;-52
2022/01/04 05:40:12;;;;;;;2.20;0.70;;;9.90;99.90;;;;;;5052074;28;20486;-53
2022/01/04 05:42:41;;;;;;;1.03;0.63;;;9.90;99.90;;;;;;5040272;28;20522;-52
2022/01/04 05:45:10;;;;;;;0.70;0.60;;;9.90;99.90;;;;;;5020545;28;20493;-52
2022/01/04 05:47:39;;;;;;;0.80;0.80;;;9.90;99.90;;;;;;5036093;28;20808;-52
2022/01/04 05:50:10;;;;;;;0.60;0.47;;;9.90;99.90;;;;;;5028213;28;20750;-53
2022/01/04 05:52:39;;;;;;;0.50;0.50;;;9.90;99.90;;;;;;5036227;28;20443;-52
2022/01/04 05:55:09;;;;;;;1.57;0.70;;;9.90;99.90;;;;;;5020447;28;20463;-52
2022/01/04 05:57:38;;;;;;;0.70;0.60;;;9.90;99.90;;;;;;5047533;28;20462;-52
2022/01/04 06:00:09;;;;;;;1.47;1.00;;;9.90;99.90;;;;;;5038045;28;20567;-55
2022/01/04 06:02:39;;;;;;;1.57;0.77;;;9.90;99.90;;;;;;5045882;28;20443;-52
2022/01/04 06:05:10;;;;;;;0.70;0.60;;;9.90;99.90;;;;;;5041900;28;20456;-53
2022/01/04 06:07:39;;;;;;;1.33;0.80;;;9.90;99.90;;;;;;5036691;28;20556;-55
2022/01/04 06:10:10;;;;;;;0.80;0.70;;;9.90;99.90;;;;;;5055124;28;20470;-61
2022/01/04 06:15:25;;;;;;;0.57;0.53;;;9.90;99.90;;;;;;5050930;28;20475;-53
2022/01/04 06:17:53;;;;;;;0.73;0.57;;;9.90;99.90;;;;;;5034973;28;20451;-52
2022/01/04 06:20:24;;;;;;;3.43;0.80;;;9.90;99.90;;;;;;5032710;28;20455;-53
2022/01/04 06:22:54;;;;;;;0.90;0.60;;;9.90;99.90;;;;;;5047524;28;20443;-55
2022/01/04 06:25:24;;;;;;;0.80;0.50;;;9.90;99.90;;;;;;5044256;28;20471;-53
2022/01/04 06:27:56;;;;;;;0.70;0.53;;;9.90;99.90;;;;;;5040381;28;20458;-53
2022/01/04 06:30:25;;;;;;;0.90;0.70;;;9.90;99.90;;;;;;5046334;28;20981;-53
2022/01/04 06:32:54;;;;;;;0.60;0.50;;;9.90;99.90;;;;;;5017596;28;20538;-52
2022/01/04 06:35:25;;;;;;;0.70;0.70;;;9.90;99.90;;;;;;5030588;28;20482;-52
2022/01/04 06:37:54;;;;;;;0.60;0.53;;;9.90;99.90;;;;;;5045941;28;20451;-52
2022/01/04 06:40:23;;;;;;;1.00;0.73;;;9.90;99.90;;;;;;5052578;28;20486;-51
2022/01/04 06:42:52;;;;;;;0.70;0.50;;;9.80;99.90;;;;;;5037844;28;20428;-51
2022/01/04 06:45:21;;;;;;;0.73;0.70;;;9.80;99.90;;;;;;5033002;28;20495;-52
2022/01/04 06:47:50;;;;;;;0.60;0.50;;;9.90;99.90;;;;;;5024669;28;20447;-51
2022/01/04 06:50:19;;;;;;;0.87;0.70;;;9.90;99.90;;;;;;5028492;28;20519;-54
2022/01/04 06:52:49;;;;;;;1.10;0.70;;;9.90;99.90;;;;;;5030745;28;20434;-52
2022/01/04 06:55:18;;;;;;;0.90;0.70;;;9.90;99.90;;;;;;5036421;28;20530;-50
2022/01/04 06:57:47;;;;;;;0.70;0.70;;;9.80;99.90;;;;;;5035199;28;20888;-50
2022/01/04 07:00:17;;;;;;;0.60;0.50;;;9.80;99.90;;;;;;5043874;28;20479;-50
2022/01/04 07:02:46;;;;;;;0.70;0.60;;;9.80;99.90;;;;;;5040992;28;20435;-50
2022/01/04 07:05:15;;;;;;;0.93;0.70;;;9.80;99.90;;;;;;5035992;28;20459;-50
2022/01/04 07:07:44;;;;;;;0.80;0.73;;;9.80;99.90;;;;;;5048353;28;20456;-51
2022/01/04 07:10:14;;;;;;;0.60;0.60;;;9.80;99.90;;;;;;5032389;28;20472;-51
2022/01/04 07:12:43;;;;;;;1.10;0.70;;;9.80;99.90;;;;;;5035644;28;20502;-52
2022/01/04 07:15:12;;;;;;;1.30;0.63;;;9.80;99.90;;;;;;5036368;28;20491;-51
2022/01/04 07:17:42;;;;;;;1.00;0.83;;;9.80;99.90;;;;;;5035585;28;20471;-51
2022/01/04 07:20:12;;;;;;;0.70;0.50;;;9.80;99.90;;;;;;5040690;28;20459;-51
2022/01/04 07:22:41;;;;;;;0.80;0.70;;;9.80;99.90;;;;;;5034480;28;20444;-52
2022/01/04 07:25:11;;;;;;;1.80;0.93;;;9.80;99.90;;;;;;5033050;28;20550;-52
2022/01/04 07:27:45;;;;;;;1.40;0.87;;;9.80;99.90;;;;;;5040929;28;20451;-51
2022/01/04 07:30:14;;;;;;;0.90;0.70;;;9.80;99.90;;;;;;5047291;28;21043;-51
2022/01/04 07:32:42;;;;;;;0.70;0.50;;;9.80;99.90;;;;;;5053221;28;20423;-52
2022/01/04 07:35:11;;;;;;;1.07;0.70;;;9.80;99.90;;;;;;5026163;28;20464;-51
2022/01/04 07:37:39;;;;;;;1.00;0.80;;;9.80;99.90;;;;;;5030540;28;20494;-55
2022/01/04 07:40:09;;;;;;;0.90;0.50;;;9.80;99.90;;;;;;5041897;28;20480;-55
2022/01/04 07:42:37;;;;;;;0.60;0.50;;;9.80;99.90;;;;;;5032470;28;20474;-51
2022/01/04 07:45:07;;;;;;;0.70;0.60;;;9.80;99.90;;;;;;5039809;28;20588;-53
2022/01/04 07:47:35;;;;;;;0.60;0.60;;;9.80;99.90;;;;;;5040314;28;20493;-51
2022/01/04 07:50:04;;;;;;;0.87;0.50;;;9.80;99.90;;;;;;5041629;28;20474;-53
2022/01/04 07:52:33;;;;;;;0.90;0.70;;;9.80;99.90;;;;;;5044917;28;20438;-50
2022/01/04 07:55:01;;;;;;;0.80;0.70;;;9.80;99.90;;;;;;5043944;28;20466;-52
2022/01/04 07:57:29;;;;;;;1.00;0.60;;;9.80;99.90;;;;;;5029216;28;20475;-51
2022/01/04 07:59:57;;;;;;;0.60;0.60;;;9.80;99.90;;;;;;5038329;28;21006;-51
2022/01/04 08:02:27;;;;;;;1.03;0.87;;;9.80;99.90;;;;;;5030721;28;20517;-52
2022/01/04 08:04:55;;;;;;;0.73;0.60;;;9.80;99.90;;;;;;5039345;28;20459;-53
2022/01/04 08:07:23;;;;;;;0.80;0.70;;;9.80;99.90;;;;;;5032389;28;20482;-51
2022/01/04 08:09:51;;;;;;;0.90;0.70;;;9.80;99.90;;;;;;5028920;28;20471;-51
2022/01/04 08:12:20;;;;;;;0.73;0.63;;;9.80;99.90;;;;;;5019109;28;20455;-53
2022/01/04 08:14:48;;;;;;;0.80;0.73;;;9.80;99.90;;;;;;5040787;28;20542;-53
2022/01/04 08:17:16;;;;;;;0.70;0.53;;;9.80;99.90;;;;;;5042769;28;20548;-52
2022/01/04 08:19:46;;;;;;;1.00;0.90;;;9.80;99.90;;;;;;5035776;28;20479;-51
2022/01/04 08:22:14;;;;;;;0.77;0.60;;;9.80;99.90;;;;;;5029133;28;20490;-54
2022/01/04 08:24:42;;;;;;;0.67;0.50;;;9.80;99.90;;;;;;5038327;28;20441;-53
2022/01/04 08:27:10;;;;;;;1.20;0.73;;;9.80;99.90;;;;;;5031749;28;20432;-52
2022/01/04 08:29:38;;;;;;;2.20;1.63;;;9.80;99.90;;;;;;5037644;28;20432;-54
2022/01/04 08:32:07;;;;;;;0.70;0.60;;;9.80;99.90;;;;;;5035360;28;20435;-51
2022/01/04 08:34:35;;;;;;;0.77;0.73;;;9.80;99.90;;;;;;5027672;28;20439;-53
2022/01/04 08:37:04;;;;;;;0.50;0.50;;;9.80;99.90;;;;;;5027929;28;20545;-54
2022/01/04 08:39:32;;;;;;;0.67;0.67;;;9.80;99.90;;;;;;5027984;28;21004;-53
2022/01/04 08:42:02;;;;;;;0.70;0.60;;;9.80;99.90;;;;;;5028202;28;20478;-54
2022/01/04 08:44:31;;;;;;;1.13;0.70;;;9.70;99.90;;;;;;5030124;28;20944;-53
2022/01/04 08:46:59;;;;;;;0.83;0.80;;;9.70;99.90;;;;;;5031857;28;20518;-52
2022/01/04 08:49:27;;;;;;;1.03;0.70;;;9.70;99.90;;;;;;5033014;28;20487;-55
2022/01/04 08:51:55;;;;;;;0.63;0.63;;;9.70;99.90;;;;;;5047012;28;20464;-53
2022/01/04 08:54:24;;;;;;;1.10;0.77;;;9.70;99.90;;;;;;5043655;28;20493;-53
2022/01/04 08:56:54;;;;;;;0.97;0.60;;;9.70;99.90;;;;;;5013843;28;20535;-53
2022/01/04 08:59:22;;;;;;;1.17;0.70;;;9.70;99.90;;;;;;4999498;28;20525;-54
2022/01/04 09:01:50;;;;;;;0.60;0.50;;;9.70;99.90;;;;;;5027565;28;20488;-54
2022/01/04 09:04:19;;;;;;;0.80;0.70;;;9.70;99.90;;;;;;5013029;28;20445;-54
2022/01/04 09:06:47;;;;;;;1.00;0.47;;;9.70;99.90;;;;;;5015024;28;20899;-54
2022/01/04 09:09:15;;;;;;;0.70;0.70;;;9.70;99.90;;;;;;5021388;28;21018;-53
2022/01/04 09:11:45;;;;;;;1.07;0.83;;;9.70;99.90;;;;;;5014488;28;21020;-54
2022/01/04 09:14:24;;;;;;;1.50;0.80;;;9.70;99.90;;;;;;5029737;28;20447;-53
2022/01/04 09:19:39;;;;;;;1.20;0.80;;;9.70;99.90;;;;;;5031141;28;20483;-53
2022/01/04 09:22:07;;;;;;;0.90;0.70;;;9.70;99.90;;;;;;5032774;28;20442;-53
2022/01/04 09:24:35;;;;;;;0.67;0.63;;;9.70;99.90;;;;;;5050077;28;20445;-51
2022/01/04 09:27:06;;;;;;;0.80;0.70;;;9.70;99.90;;;;;;5051007;28;20496;-53
2022/01/04 09:29:38;;;;;;;2.40;0.87;;;9.70;99.90;;;;;;5050175;28;20496;-52
2022/01/04 09:32:07;;;;;;;0.90;0.80;;;9.70;99.90;;;;;;5050765;28;20610;-51
2022/01/04 09:34:35;;;;;;;1.30;1.10;;;9.70;99.90;;;;;;5049766;28;20470;-53
2022/01/04 09:37:04;;;;;;;0.80;0.60;;;9.70;99.90;;;;;;5021690;28;20463;-52
2022/01/04 09:39:32;;;;;;;0.73;0.70;;;9.70;99.90;;;;;;5050489;28;20559;-50
2022/01/04 09:42:01;;;;;;;1.07;0.90;;;9.70;99.90;;;;;;5032419;28;20972;-53
2022/01/04 09:44:31;;;;;;;0.70;0.50;;;9.70;99.90;;;;;;5049745;28;20451;-52
2022/01/04 09:47:02;;;;;;;0.80;0.80;;;9.70;99.90;;;;;;5050320;28;20457;-52
2022/01/04 09:49:31;;;;;;;0.83;0.70;;;9.70;99.90;;;;;;5049978;28;20508;-53
2022/01/04 09:51:59;;;;;;;0.70;0.60;;;9.70;99.90;;;;;;5050468;28;20528;-51
2022/01/04 09:54:28;;;;;;;1.50;0.90;;;9.70;99.90;;;;;;5041708;28;20438;-54
2022/01/04 09:56:56;;;;;;;1.10;0.80;;;9.70;99.90;;;;;;5016093;28;20541;-51
2022/01/04 09:59:24;;;;;;;1.27;0.57;;;9.70;99.90;;;;;;5025923;28;20975;-53
2022/01/04 10:02:01;;;;;;;0.87;0.63;;;9.70;99.90;;;;;;5019440;28;20443;-53
2022/01/04 10:04:30;;;;;;;0.70;0.70;;;9.70;99.90;;;;;;5030006;28;20441;-52
2022/01/04 10:07:01;;;;;;;0.90;0.77;;;9.70;99.90;;;;;;5013734;28;20444;-51
2022/01/04 10:09:36;;;;;;;1.20;0.80;;;9.70;99.90;;;;;;5023939;28;20460;-52
2022/01/04 10:12:07;;;;;;;1.57;0.80;;;9.70;99.90;;;;;;5020835;28;20866;-53
2022/01/04 10:14:40;;;;;;;1.30;0.70;;;9.70;99.90;;;;;;5016357;28;20543;-54
2022/01/04 10:17:13;;;;;;;0.67;0.67;;;9.70;99.90;;;;;;5027104;28;20441;-52
2022/01/04 10:19:44;;;;;;;0.80;0.77;;;9.70;99.90;;;;;;5014215;28;20465;-53
2022/01/04 10:22:16;;;;;;;0.80;0.50;;;9.70;99.90;;;;;;5010325;28;20523;-53
2022/01/04 10:24:45;;;;;;;1.17;0.80;;;9.70;99.90;;;;;;5009972;28;20495;-52
2022/01/04 10:27:25;;;;;;;0.70;0.63;;;9.70;99.90;;;;;;5008464;28;20482;-54
2022/01/04 10:30:16;;;;;;;1.37;0.80;;;9.70;99.90;;;;;;4993546;28;20464;-55
2022/01/04 10:32:49;;;;;;;1.10;0.60;;;9.70;99.90;;;;;;5010748;28;20456;-53
2022/01/04 10:35:21;;;;;;;0.80;0.63;;;9.60;99.90;;;;;;5005489;28;20500;-51
2022/01/04 10:37:50;;;;;;;0.60;0.50;;;9.60;99.90;;;;;;5011928;28;20523;-53
2022/01/04 10:40:18;;;;;;;1.00;0.90;;;9.70;99.90;;;;;;5009327;28;20464;-54
2022/01/04 10:42:47;;;;;;;0.77;0.77;;;9.70;99.90;;;;;;5009663;28;20429;-52
2022/01/04 10:45:24;;;;;;;1.43;0.60;;;9.70;99.90;;;;;;5009204;28;20468;-51
2022/01/04 10:47:54;;;;;;;1.07;0.60;;;9.60;99.90;;;;;;5010011;28;20531;-54
2022/01/04 10:50:30;;;;;;;1.00;0.80;;;9.60;99.90;;;;;;5010991;28;21033;-53
2022/01/04 10:53:00;;;;;;;1.60;0.67;;;9.60;99.90;;;;;;5012814;28;20452;-53
2022/01/04 10:55:32;;;;;;;0.90;0.73;;;9.60;99.90;;;;;;5025320;28;20812;-54
2022/01/04 10:58:01;;;;;;;0.63;0.63;;;9.60;99.90;;;;;;5018767;28;20471;-52
2022/01/04 11:00:30;;;;;;;1.00;0.90;;;9.60;99.90;;;;;;5014917;28;20500;-52
2022/01/04 11:03:02;;;;;;;0.80;0.80;;;9.60;99.90;;;;;;5011431;28;20851;-54
2022/01/04 11:05:31;;;;;;;1.00;0.87;;;9.60;99.90;;;;;;5015904;28;20553;-51
2022/01/04 11:08:00;;;;;;;1.20;1.10;;;9.60;99.90;;;;;;5022815;28;20989;-53
2022/01/04 11:10:30;;;;;;;0.70;0.60;;;9.60;99.90;;;;;;5015381;28;21046;-55
2022/01/04 11:12:59;;;;;;;0.70;0.60;;;9.60;99.90;;;;;;5023684;28;20522;-54
2022/01/04 11:15:28;;;;;;;0.70;0.67;;;9.60;99.90;;;;;;5013888;28;20897;-52
2022/01/04 11:17:58;;;;;;;2.67;1.23;;;9.60;99.90;;;;;;5019482;28;20465;-51
2022/01/04 11:20:27;;;;;;;0.80;0.67;;;9.60;99.90;;;;;;5014843;28;20467;-52
2022/01/04 11:22:58;;;;;;;0.90;0.70;;;9.60;99.90;;;;;;5012848;28;20448;-52
2022/01/04 11:25:28;;;;;;;0.80;0.80;;;9.60;99.90;;;;;;5024213;28;21012;-55
2022/01/04 11:28:00;;;;;;;0.73;0.73;;;9.60;99.90;;;;;;5019351;28;20862;-54
2022/01/04 11:30:42;;;;;;;0.87;0.80;;;9.60;99.90;;;;;;5024124;28;20526;-54
2022/01/04 11:33:20;;;;;;;1.43;0.90;;;9.60;99.90;;;;;;5012517;28;20493;-53
2022/01/04 11:35:48;;;;;;;1.10;0.93;;;9.60;99.90;;;;;;5014525;28;20950;-52
2022/01/04 11:38:31;;;;;;;0.80;0.80;;;9.60;99.90;;;;;;5008894;28;20494;-54
2022/01/04 11:40:59;;;;;;;0.93;0.83;;;9.60;99.90;;;;;;5007286;28;20468;-54
2022/01/04 11:43:30;;;;;;;1.80;1.50;;;9.60;99.90;;;;;;5011741;28;20712;-52
2022/01/04 11:45:58;;;;;;;1.40;1.30;;;9.60;99.90;;;;;;5006933;28;20843;-51
2022/01/04 11:48:34;;;;;;;1.33;1.23;;;9.60;99.90;;;;;;5008173;28;20998;-53
2022/01/04 11:51:04;;;;;;;1.20;0.90;;;9.60;99.90;;;;;;5013303;28;20599;-51
2022/01/04 11:53:34;;;;;;;0.83;0.83;;;9.60;99.90;;;;;;5015737;28;20503;-51
2022/01/04 11:56:05;;;;;;;0.90;0.73;;;9.60;99.90;;;;;;5008717;28;20894;-52
2022/01/04 11:58:45;;;;;;;1.47;1.17;;;9.60;99.90;;;;;;5015550;28;20965;-54
2022/01/04 12:01:16;;;;;;;1.57;1.20;;;9.60;99.90;;;;;;5011703;28;21015;-51
2022/01/04 12:03:48;;;;;;;0.90;0.90;;;9.60;99.90;;;;;;5007184;28;20498;-53
2022/01/04 12:06:18;;;;;;;2.13;1.10;;;9.60;99.90;;;;;;5014060;28;20468;-51
2022/01/04 12:08:48;;;;;;;1.63;1.53;;;9.60;99.90;;;;;;5009822;28;20540;-52
2022/01/04 12:11:39;;;;;;;1.17;1.07;;;9.60;99.90;;;;;;5011190;28;20529;-51
2022/01/04 12:14:24;;;;;;;1.40;1.20;;;9.60;99.90;;;;;;5017190;28;20946;-53
2022/01/04 12:17:04;;;;;;;1.30;1.20;;;9.60;99.90;;;;;;4998416;28;20482;-54
2022/01/04 12:19:50;;;;;;;1.07;0.77;;;9.60;99.90;;;;;;5016659;28;20455;-51
2022/01/04 12:22:31;;;;;;;1.47;1.30;;;9.60;99.90;;;;;;5011784;28;20531;-53
2022/01/04 12:25:05;;;;;;;1.33;1.23;;;9.60;99.90;;;;;;5010475;28;20976;-52
2022/01/04 12:27:33;;;;;;;1.20;1.10;;;9.60;99.90;;;;;;5017755;28;20466;-55
2022/01/04 12:30:25;;;;;;;1.20;1.07;;;9.60;99.90;;;;;;5007448;28;21009;-53
2022/01/04 12:33:14;;;;;;;1.10;1.00;;;9.60;99.90;;;;;;5007535;28;20448;-55
2022/01/04 12:35:49;;;;;;;2.13;1.47;;;9.60;99.90;;;;;;4999920;28;21010;-52
2022/01/04 12:38:17;;;;;;;1.60;0.97;;;9.60;99.90;;;;;;5010500;28;20502;-52
2022/01/04 12:40:52;;;;;;;1.60;1.10;;;9.60;99.90;;;;;;5018927;28;20614;-52
2022/01/04 12:43:20;;;;;;;1.00;0.90;;;9.60;99.90;;;;;;5011458;28;20435;-52
2022/01/04 12:45:57;;;;;;;1.57;0.80;;;9.50;99.90;;;;;;5009257;28;20484;-53
2022/01/04 12:48:43;;;;;;;0.73;0.67;;;9.60;99.90;;;;;;5008553;28;20463;-51
2022/01/04 12:51:27;;;;;;;1.20;1.00;;;9.60;99.90;;;;;;5011140;28;20560;-51
2022/01/04 12:53:56;;;;;;;1.20;1.10;;;9.50;99.90;;;;;;5010788;28;20535;-54
2022/01/04 12:56:25;;;;;;;2.50;1.63;;;9.50;99.90;;;;;;5011258;28;20475;-51
2022/01/04 12:58:53;;;;;;;2.20;1.20;;;9.50;99.90;;;;;;5009282;28;20971;-54
2022/01/04 13:01:23;;;;;;;1.33;1.03;;;9.50;99.90;;;;;;5005699;28;20477;-50
2022/01/04 13:03:52;;;;;;;1.60;1.50;;;9.50;99.90;;;;;;5005706;28;20543;-52
2022/01/04 13:06:21;;;;;;;1.27;1.17;;;9.50;99.90;;;;;;5012423;28;20748;-52
2022/01/04 13:08:53;;;;;;;1.93;1.83;;;9.50;99.90;;;;;;5013386;28;20489;-50
2022/01/04 13:11:22;;;;;;;1.80;1.70;;;9.50;99.90;;;;;;5001424;28;20491;-52
2022/01/04 13:13:54;;;;;;;2.37;2.17;;;9.50;99.90;;;;;;5017629;28;20485;-53
2022/01/04 13:16:29;;;;;;;1.97;1.87;;;9.50;99.90;;;;;;5002230;28;20843;-51